sensor_id;sensor_type;location;lat;lon;timestamp;pressure;altitude;pressure_sealevel;temperature;humidity
68476;BME280;55464;48.266;14.188;2023-12-29T00:01:17;97973.63;;;10.10;55.11
68476;BME280;55464;48.266;14.188;2023-12-29T00:03:44;97991.56;;;10.16;55.12
68476;BME280;55464;48.266;14.188;2023-12-29T00:06:09;97981.66;;;10.15;54.56
68476;BME280;55464;48.266;14.188;2023-12-29T00:08:36;97992.25;;;10.34;54.10
68476;BME280;55464;48.266;14.188;2023-12-29T00:11:02;97984.94;;;10.38;54.11
68476;BME280;55464;48.266;14.188;2023-12-29T00:13:30;97993.25;;;10.50;54.06
68476;BME280;55464;48.266;14.188;2023-12-29T00:15:59;97980.50;;;10.58;54.51
68476;BME280;55464;48.266;14.188;2023-12-29T00:18:25;97964.31;;;10.56;54.05
68476;BME280;55464;48.266;14.188;2023-12-29T00:20:51;97959.63;;;10.69;53.75
68476;BME280;55464;48.266;14.188;2023-12-29T00:23:17;97967.41;;;10.55;54.23
68476;BME280;55464;48.266;14.188;2023-12-29T00:25:42;97968.34;;;10.59;54.40
68476;BME280;55464;48.266;14.188;2023-12-29T00:28:08;97954.91;;;10.57;53.77
68476;BME280;55464;48.266;14.188;2023-12-29T00:30:34;97975.34;;;10.56;54.50
68476;BME280;55464;48.266;14.188;2023-12-29T00:33:02;97970.13;;;10.43;54.67
68476;BME280;55464;48.266;14.188;2023-12-29T00:35:28;97967.81;;;10.45;54.97
68476;BME280;55464;48.266;14.188;2023-12-29T00:37:53;97965.06;;;10.45;55.24
68476;BME280;55464;48.266;14.188;2023-12-29T00:40:19;97959.31;;;10.37;55.45
68476;BME280;55464;48.266;14.188;2023-12-29T00:42:44;97963.47;;;10.44;55.01
68476;BME280;55464;48.266;14.188;2023-12-29T00:45:10;97969.72;;;10.32;55.50
68476;BME280;55464;48.266;14.188;2023-12-29T00:47:35;97973.06;;;10.37;54.97
68476;BME280;55464;48.266;14.188;2023-12-29T00:50:01;97978.97;;;10.27;56.31
68476;BME280;55464;48.266;14.188;2023-12-29T00:52:27;97981.59;;;10.45;55.35
68476;BME280;55464;48.266;14.188;2023-12-29T00:54:53;97994.97;;;10.55;55.05
68476;BME280;55464;48.266;14.188;2023-12-29T00:57:18;97989.94;;;10.69;54.67
68476;BME280;55464;48.266;14.188;2023-12-29T00:59:46;97988.59;;;10.75;54.53
68476;BME280;55464;48.266;14.188;2023-12-29T01:02:12;97993.09;;;10.80;54.52
68476;BME280;55464;48.266;14.188;2023-12-29T01:04:38;97995.38;;;10.78;54.67
68476;BME280;55464;48.266;14.188;2023-12-29T01:07:07;97992.84;;;10.73;54.58
68476;BME280;55464;48.266;14.188;2023-12-29T01:09:37;97977.56;;;10.75;54.58
68476;BME280;55464;48.266;14.188;2023-12-29T01:12:04;97986.88;;;10.83;54.22
68476;BME280;55464;48.266;14.188;2023-12-29T01:14:29;97988.03;;;10.82;54.08
68476;BME280;55464;48.266;14.188;2023-12-29T01:16:55;97987.94;;;10.91;54.15
68476;BME280;55464;48.266;14.188;2023-12-29T01:19:20;97996.56;;;10.89;54.38
68476;BME280;55464;48.266;14.188;2023-12-29T01:21:46;97995.28;;;10.99;54.08
68476;BME280;55464;48.266;14.188;2023-12-29T01:24:11;98001.31;;;11.01;54.04
68476;BME280;55464;48.266;14.188;2023-12-29T01:26:37;98009.78;;;10.96;54.37
68476;BME280;55464;48.266;14.188;2023-12-29T01:29:04;97998.00;;;10.74;54.53
68476;BME280;55464;48.266;14.188;2023-12-29T01:31:30;98005.25;;;10.79;54.85
68476;BME280;55464;48.266;14.188;2023-12-29T01:33:56;97977.19;;;10.65;55.18
68476;BME280;55464;48.266;14.188;2023-12-29T01:36:21;97997.97;;;10.62;55.30
68476;BME280;55464;48.266;14.188;2023-12-29T01:38:47;98006.22;;;10.62;55.67
68476;BME280;55464;48.266;14.188;2023-12-29T01:41:13;98001.69;;;10.66;55.34
68476;BME280;55464;48.266;14.188;2023-12-29T01:46:28;97987.97;;;10.57;55.89
68476;BME280;55464;48.266;14.188;2023-12-29T01:48:54;97988.66;;;10.54;55.97
68476;BME280;55464;48.266;14.188;2023-12-29T01:51:24;97986.31;;;10.44;56.48
68476;BME280;55464;48.266;14.188;2023-12-29T01:53:52;97964.53;;;10.51;56.41
68476;BME280;55464;48.266;14.188;2023-12-29T01:56:18;97982.22;;;10.50;55.55
68476;BME280;55464;48.266;14.188;2023-12-29T01:58:45;97974.81;;;10.42;55.69
68476;BME280;55464;48.266;14.188;2023-12-29T02:01:11;97987.31;;;10.39;56.16
68476;BME280;55464;48.266;14.188;2023-12-29T02:03:38;97975.72;;;10.34;56.08
68476;BME280;55464;48.266;14.188;2023-12-29T02:06:04;97975.72;;;10.34;55.79
68476;BME280;55464;48.266;14.188;2023-12-29T02:08:31;97991.81;;;10.23;56.11
68476;BME280;55464;48.266;14.188;2023-12-29T02:10:58;97968.59;;;10.12;56.30
68476;BME280;55464;48.266;14.188;2023-12-29T02:13:24;97964.81;;;9.95;56.68
68476;BME280;55464;48.266;14.188;2023-12-29T02:15:54;97967.44;;;9.92;56.56
68476;BME280;55464;48.266;14.188;2023-12-29T02:18:22;97969.19;;;9.96;56.24
68476;BME280;55464;48.266;14.188;2023-12-29T02:20:49;97966.38;;;9.84;56.87
68476;BME280;55464;48.266;14.188;2023-12-29T02:23:14;97973.22;;;9.78;56.78
68476;BME280;55464;48.266;14.188;2023-12-29T02:25:40;97972.72;;;9.55;57.28
68476;BME280;55464;48.266;14.188;2023-12-29T02:28:24;97962.09;;;9.44;57.08
68476;BME280;55464;48.266;14.188;2023-12-29T02:31:02;97968.34;;;9.83;56.10
68476;BME280;55464;48.266;14.188;2023-12-29T02:33:33;97965.59;;;9.83;55.98
68476;BME280;55464;48.266;14.188;2023-12-29T02:36:01;97963.88;;;9.70;56.41
68476;BME280;55464;48.266;14.188;2023-12-29T02:38:28;97961.00;;;9.67;56.78
68476;BME280;55464;48.266;14.188;2023-12-29T02:40:58;97947.28;;;9.58;57.09
68476;BME280;55464;48.266;14.188;2023-12-29T02:43:24;97968.91;;;9.68;56.75
68476;BME280;55464;48.266;14.188;2023-12-29T02:45:50;97961.81;;;9.88;56.42
68476;BME280;55464;48.266;14.188;2023-12-29T02:48:15;97964.09;;;9.86;56.20
68476;BME280;55464;48.266;14.188;2023-12-29T02:50:41;97964.22;;;9.90;55.64
68476;BME280;55464;48.266;14.188;2023-12-29T02:53:07;97963.75;;;10.09;55.73
68476;BME280;55464;48.266;14.188;2023-12-29T02:55:33;97953.16;;;9.98;54.80
68476;BME280;55464;48.266;14.188;2023-12-29T02:57:59;97956.81;;;9.81;55.63
68476;BME280;55464;48.266;14.188;2023-12-29T03:00:24;97960.59;;;9.98;55.31
68476;BME280;55464;48.266;14.188;2023-12-29T03:02:50;97961.81;;;9.88;54.94
68476;BME280;55464;48.266;14.188;2023-12-29T03:05:15;97968.53;;;9.78;55.47
68476;BME280;55464;48.266;14.188;2023-12-29T03:07:51;97954.13;;;9.73;55.60
68476;BME280;55464;48.266;14.188;2023-12-29T03:10:42;97960.81;;;9.72;54.60
68476;BME280;55464;48.266;14.188;2023-12-29T03:13:19;97949.06;;;9.62;55.72
68476;BME280;55464;48.266;14.188;2023-12-29T03:15:57;97941.53;;;9.72;55.50
68476;BME280;55464;48.266;14.188;2023-12-29T03:18:36;97932.81;;;9.70;54.45
68476;BME280;55464;48.266;14.188;2023-12-29T03:21:12;97932.31;;;9.89;54.85
68476;BME280;55464;48.266;14.188;2023-12-29T03:23:54;97914.06;;;9.84;54.53
68476;BME280;55464;48.266;14.188;2023-12-29T03:26:45;97908.63;;;9.96;54.35
68476;BME280;55464;48.266;14.188;2023-12-29T03:29:11;97919.69;;;10.09;53.82
68476;BME280;55464;48.266;14.188;2023-12-29T03:31:36;97908.09;;;9.82;54.20
68476;BME280;55464;48.266;14.188;2023-12-29T03:34:02;97911.97;;;10.02;53.75
68476;BME280;55464;48.266;14.188;2023-12-29T03:36:28;97905.25;;;10.12;53.18
68476;BME280;55464;48.266;14.188;2023-12-29T03:38:53;97900.97;;;9.81;53.79
68476;BME280;55464;48.266;14.188;2023-12-29T03:41:19;97901.78;;;9.81;53.53
68476;BME280;55464;48.266;14.188;2023-12-29T03:43:44;97883.66;;;9.80;53.62
68476;BME280;55464;48.266;14.188;2023-12-29T03:48:42;97879.38;;;10.04;53.84
68476;BME280;55464;48.266;14.188;2023-12-29T03:51:08;97881.56;;;9.98;53.45
68476;BME280;55464;48.266;14.188;2023-12-29T03:53:33;97887.06;;;9.98;53.83
68476;BME280;55464;48.266;14.188;2023-12-29T03:55:59;97874.88;;;9.87;54.08
68476;BME280;55464;48.266;14.188;2023-12-29T03:58:24;97876.91;;;9.90;54.27
68476;BME280;55464;48.266;14.188;2023-12-29T04:00:50;97894.31;;;10.03;54.32
68476;BME280;55464;48.266;14.188;2023-12-29T04:03:15;97895.25;;;10.07;54.47
68476;BME280;55464;48.266;14.188;2023-12-29T04:05:41;97894.03;;;10.17;54.10
68476;BME280;55464;48.266;14.188;2023-12-29T04:08:06;97884.25;;;10.19;53.77
68476;BME280;55464;48.266;14.188;2023-12-29T04:10:32;97891.59;;;10.15;54.02
68476;BME280;55464;48.266;14.188;2023-12-29T04:12:57;97894.56;;;10.31;53.83
68476;BME280;55464;48.266;14.188;2023-12-29T04:15:23;97881.06;;;10.17;53.95
68476;BME280;55464;48.266;14.188;2023-12-29T04:17:48;97878.94;;;10.02;53.93
68476;BME280;55464;48.266;14.188;2023-12-29T04:20:14;97864.84;;;9.82;53.88
68476;BME280;55464;48.266;14.188;2023-12-29T04:22:39;97882.94;;;9.71;54.74
68476;BME280;55464;48.266;14.188;2023-12-29T04:25:05;97882.09;;;9.92;54.38
68476;BME280;55464;48.266;14.188;2023-12-29T04:27:31;97870.69;;;9.81;54.20
68476;BME280;55464;48.266;14.188;2023-12-29T04:29:56;97874.81;;;9.75;54.66
68476;BME280;55464;48.266;14.188;2023-12-29T04:32:22;97868.06;;;9.84;54.76
68476;BME280;55464;48.266;14.188;2023-12-29T04:34:47;97868.28;;;9.79;54.51
68476;BME280;55464;48.266;14.188;2023-12-29T04:37:13;97866.84;;;9.61;55.20
68476;BME280;55464;48.266;14.188;2023-12-29T04:39:38;97867.22;;;9.72;55.26
68476;BME280;55464;48.266;14.188;2023-12-29T04:42:04;97853.66;;;9.67;55.68
68476;BME280;55464;48.266;14.188;2023-12-29T04:44:29;97845.06;;;9.68;55.73
68476;BME280;55464;48.266;14.188;2023-12-29T04:46:55;97845.66;;;9.74;55.73
68476;BME280;55464;48.266;14.188;2023-12-29T04:49:20;97842.19;;;9.64;55.24
68476;BME280;55464;48.266;14.188;2023-12-29T04:51:46;97840.44;;;9.60;55.50
68476;BME280;55464;48.266;14.188;2023-12-29T04:54:14;97843.72;;;9.74;55.30
68476;BME280;55464;48.266;14.188;2023-12-29T04:56:39;97856.00;;;9.77;55.13
68476;BME280;55464;48.266;14.188;2023-12-29T04:59:05;97859.31;;;9.70;55.51
68476;BME280;55464;48.266;14.188;2023-12-29T05:01:30;97852.94;;;9.78;54.89
68476;BME280;55464;48.266;14.188;2023-12-29T05:03:56;97854.66;;;9.62;55.25
68476;BME280;55464;48.266;14.188;2023-12-29T05:06:21;97851.66;;;9.55;55.73
68476;BME280;55464;48.266;14.188;2023-12-29T05:08:47;97843.34;;;9.42;55.81
68476;BME280;55464;48.266;14.188;2023-12-29T05:11:12;97855.41;;;9.50;56.28
68476;BME280;55464;48.266;14.188;2023-12-29T05:13:38;97848.50;;;9.44;56.87
68476;BME280;55464;48.266;14.188;2023-12-29T05:16:05;97846.53;;;9.44;56.88
68476;BME280;55464;48.266;14.188;2023-12-29T05:18:31;97839.06;;;9.54;56.55
68476;BME280;55464;48.266;14.188;2023-12-29T05:20:56;97851.25;;;9.65;56.22
68476;BME280;55464;48.266;14.188;2023-12-29T05:23:21;97852.84;;;9.87;55.94
68476;BME280;55464;48.266;14.188;2023-12-29T05:25:47;97860.00;;;10.00;55.49
68476;BME280;55464;48.266;14.188;2023-12-29T05:28:13;97837.16;;;10.00;55.09
68476;BME280;55464;48.266;14.188;2023-12-29T05:30:39;97854.31;;;10.18;54.94
68476;BME280;55464;48.266;14.188;2023-12-29T05:33:04;97869.03;;;10.22;54.62
68476;BME280;55464;48.266;14.188;2023-12-29T05:35:30;97865.00;;;10.19;54.07
68476;BME280;55464;48.266;14.188;2023-12-29T05:37:55;97848.13;;;10.21;54.03
68476;BME280;55464;48.266;14.188;2023-12-29T05:40:21;97872.31;;;10.36;53.78
68476;BME280;55464;48.266;14.188;2023-12-29T05:42:46;97853.47;;;10.05;53.91
68476;BME280;55464;48.266;14.188;2023-12-29T05:45:12;97854.81;;;9.99;54.47
68476;BME280;55464;48.266;14.188;2023-12-29T05:47:37;97864.56;;;9.96;54.90
68476;BME280;55464;48.266;14.188;2023-12-29T05:50:03;97853.38;;;9.80;55.02
68476;BME280;55464;48.266;14.188;2023-12-29T05:52:29;97872.91;;;9.88;54.59
68476;BME280;55464;48.266;14.188;2023-12-29T05:54:55;97860.09;;;9.71;55.37
68476;BME280;55464;48.266;14.188;2023-12-29T05:57:20;97851.44;;;9.60;55.66
68476;BME280;55464;48.266;14.188;2023-12-29T05:59:46;97852.09;;;9.78;54.79
68476;BME280;55464;48.266;14.188;2023-12-29T06:02:11;97872.00;;;9.83;55.29
68476;BME280;55464;48.266;14.188;2023-12-29T06:04:37;97864.34;;;9.68;55.27
68476;BME280;55464;48.266;14.188;2023-12-29T06:07:03;97872.66;;;9.80;55.15
68476;BME280;55464;48.266;14.188;2023-12-29T06:09:28;97868.81;;;9.73;55.45
68476;BME280;55464;48.266;14.188;2023-12-29T06:11:54;97869.78;;;9.77;55.02
68476;BME280;55464;48.266;14.188;2023-12-29T06:14:19;97878.63;;;9.82;55.54
68476;BME280;55464;48.266;14.188;2023-12-29T06:16:45;97875.25;;;9.98;55.02
68476;BME280;55464;48.266;14.188;2023-12-29T06:19:11;97868.53;;;9.87;55.13
68476;BME280;55464;48.266;14.188;2023-12-29T06:21:43;97869.16;;;9.92;54.96
68476;BME280;55464;48.266;14.188;2023-12-29T06:24:09;97874.78;;;9.96;54.86
68476;BME280;55464;48.266;14.188;2023-12-29T06:26:35;97881.38;;;9.82;55.53
68476;BME280;55464;48.266;14.188;2023-12-29T06:29:00;97879.69;;;9.69;55.56
68476;BME280;55464;48.266;14.188;2023-12-29T06:31:26;97894.41;;;9.73;56.07
68476;BME280;55464;48.266;14.188;2023-12-29T06:33:52;97874.94;;;9.78;55.35
68476;BME280;55464;48.266;14.188;2023-12-29T06:36:17;97895.66;;;9.76;55.44
68476;BME280;55464;48.266;14.188;2023-12-29T06:38:43;97890.50;;;9.74;55.88
68476;BME280;55464;48.266;14.188;2023-12-29T06:41:13;97884.97;;;9.95;55.34
68476;BME280;55464;48.266;14.188;2023-12-29T06:43:39;97884.78;;;10.00;54.84
68476;BME280;55464;48.266;14.188;2023-12-29T06:46:05;97890.00;;;10.14;54.49
68476;BME280;55464;48.266;14.188;2023-12-29T06:48:31;97882.88;;;10.13;54.19
68476;BME280;55464;48.266;14.188;2023-12-29T06:50:57;97878.06;;;10.10;54.78
68476;BME280;55464;48.266;14.188;2023-12-29T06:53:22;97860.13;;;10.04;54.81
68476;BME280;55464;48.266;14.188;2023-12-29T06:55:48;97861.97;;;10.12;54.93
68476;BME280;55464;48.266;14.188;2023-12-29T06:58:14;97871.47;;;10.02;55.05
68476;BME280;55464;48.266;14.188;2023-12-29T07:00:39;97864.25;;;9.98;55.08
68476;BME280;55464;48.266;14.188;2023-12-29T07:03:05;97873.41;;;10.02;55.16
68476;BME280;55464;48.266;14.188;2023-12-29T07:05:30;97879.34;;;9.92;55.08
68476;BME280;55464;48.266;14.188;2023-12-29T07:07:57;97885.00;;;9.74;55.53
68476;BME280;55464;48.266;14.188;2023-12-29T07:10:23;97892.31;;;9.70;55.76
68476;BME280;55464;48.266;14.188;2023-12-29T07:12:48;97881.84;;;9.63;55.91
68476;BME280;55464;48.266;14.188;2023-12-29T07:15:14;97879.75;;;9.60;56.20
68476;BME280;55464;48.266;14.188;2023-12-29T07:17:40;97888.97;;;9.64;56.32
68476;BME280;55464;48.266;14.188;2023-12-29T07:20:06;97883.13;;;9.66;56.68
68476;BME280;55464;48.266;14.188;2023-12-29T07:22:32;97880.53;;;9.70;56.88
68476;BME280;55464;48.266;14.188;2023-12-29T07:24:58;97871.56;;;9.73;56.45
68476;BME280;55464;48.266;14.188;2023-12-29T07:27:24;97863.94;;;9.78;56.52
68476;BME280;55464;48.266;14.188;2023-12-29T07:29:49;97879.59;;;9.99;56.10
68476;BME280;55464;48.266;14.188;2023-12-29T07:32:15;97892.94;;;10.09;55.50
68476;BME280;55464;48.266;14.188;2023-12-29T07:34:41;97898.47;;;9.88;56.02
68476;BME280;55464;48.266;14.188;2023-12-29T07:37:06;97910.84;;;9.40;58.08
68476;BME280;55464;48.266;14.188;2023-12-29T07:39:32;97910.84;;;9.82;57.03
68476;BME280;55464;48.266;14.188;2023-12-29T07:41:57;97883.59;;;9.89;56.29
68476;BME280;55464;48.266;14.188;2023-12-29T07:44:23;97890.94;;;9.97;56.30
68476;BME280;55464;48.266;14.188;2023-12-29T07:46:49;97884.50;;;9.93;56.32
68476;BME280;55464;48.266;14.188;2023-12-29T07:49:14;97895.03;;;10.12;56.09
68476;BME280;55464;48.266;14.188;2023-12-29T07:51:41;97874.56;;;10.01;56.64
68476;BME280;55464;48.266;14.188;2023-12-29T07:54:07;97878.63;;;10.16;56.62
68476;BME280;55464;48.266;14.188;2023-12-29T07:56:33;97871.38;;;10.11;56.51
68476;BME280;55464;48.266;14.188;2023-12-29T07:58:59;97896.56;;;10.22;56.78
68476;BME280;55464;48.266;14.188;2023-12-29T08:01:24;97909.31;;;10.27;56.72
68476;BME280;55464;48.266;14.188;2023-12-29T08:03:51;97913.44;;;10.20;56.77
68476;BME280;55464;48.266;14.188;2023-12-29T08:06:16;97928.78;;;9.88;56.87
68476;BME280;55464;48.266;14.188;2023-12-29T08:08:42;97913.72;;;10.07;57.17
68476;BME280;55464;48.266;14.188;2023-12-29T08:11:14;97926.75;;;10.31;56.66
68476;BME280;55464;48.266;14.188;2023-12-29T08:13:43;97913.84;;;10.31;55.94
68476;BME280;55464;48.266;14.188;2023-12-29T08:16:10;97920.75;;;10.50;55.86
68476;BME280;55464;48.266;14.188;2023-12-29T08:18:35;97907.06;;;10.41;56.48
68476;BME280;55464;48.266;14.188;2023-12-29T08:21:01;97921.94;;;10.49;56.33
68476;BME280;55464;48.266;14.188;2023-12-29T08:23:27;97924.47;;;10.54;56.34
68476;BME280;55464;48.266;14.188;2023-12-29T08:25:57;97933.66;;;10.58;55.86
68476;BME280;55464;48.266;14.188;2023-12-29T08:28:25;97945.00;;;10.56;56.60
68476;BME280;55464;48.266;14.188;2023-12-29T08:30:52;97949.31;;;10.66;56.00
68476;BME280;55464;48.266;14.188;2023-12-29T08:33:19;97937.81;;;10.64;55.90
68476;BME280;55464;48.266;14.188;2023-12-29T08:35:45;97940.22;;;10.66;56.03
68476;BME280;55464;48.266;14.188;2023-12-29T08:38:11;97948.38;;;10.74;55.37
68476;BME280;55464;48.266;14.188;2023-12-29T08:40:37;97942.41;;;10.72;55.69
68476;BME280;55464;48.266;14.188;2023-12-29T08:43:03;97927.94;;;10.75;54.91
68476;BME280;55464;48.266;14.188;2023-12-29T08:45:28;97931.16;;;10.77;55.82
68476;BME280;55464;48.266;14.188;2023-12-29T08:47:54;97946.00;;;10.85;55.52
68476;BME280;55464;48.266;14.188;2023-12-29T08:50:19;97943.72;;;10.87;55.52
68476;BME280;55464;48.266;14.188;2023-12-29T08:52:47;97936.94;;;10.97;54.95
68476;BME280;55464;48.266;14.188;2023-12-29T08:55:12;97929.94;;;11.00;55.48
68476;BME280;55464;48.266;14.188;2023-12-29T08:57:38;97919.59;;;10.96;55.59
68476;BME280;55464;48.266;14.188;2023-12-29T09:00:04;97922.22;;;11.05;55.86
68476;BME280;55464;48.266;14.188;2023-12-29T09:02:29;97928.66;;;11.09;55.98
68476;BME280;55464;48.266;14.188;2023-12-29T09:04:55;97926.00;;;11.13;55.91
68476;BME280;55464;48.266;14.188;2023-12-29T09:07:22;97926.94;;;11.17;55.56
68476;BME280;55464;48.266;14.188;2023-12-29T09:09:48;97930.16;;;11.19;55.57
68476;BME280;55464;48.266;14.188;2023-12-29T09:12:15;97947.06;;;11.30;55.47
68476;BME280;55464;48.266;14.188;2023-12-29T09:14:40;97931.88;;;11.11;56.06
68476;BME280;55464;48.266;14.188;2023-12-29T09:17:06;97950.03;;;11.25;56.03
68476;BME280;55464;48.266;14.188;2023-12-29T09:19:31;97947.69;;;10.65;57.79
68476;BME280;55464;48.266;14.188;2023-12-29T09:21:57;97956.75;;;10.66;57.80
68476;BME280;55464;48.266;14.188;2023-12-29T09:24:24;97956.16;;;10.60;57.76
68476;BME280;55464;48.266;14.188;2023-12-29T09:26:51;97955.97;;;10.77;56.41
68476;BME280;55464;48.266;14.188;2023-12-29T09:29:18;97946.31;;;10.71;57.10
68476;BME280;55464;48.266;14.188;2023-12-29T09:31:44;97950.94;;;10.92;56.60
68476;BME280;55464;48.266;14.188;2023-12-29T09:34:10;97958.31;;;11.00;56.14
68476;BME280;55464;48.266;14.188;2023-12-29T09:36:36;97950.94;;;11.04;56.22
68476;BME280;55464;48.266;14.188;2023-12-29T09:39:01;97947.06;;;11.05;56.42
68476;BME280;55464;48.266;14.188;2023-12-29T09:41:31;97949.13;;;11.08;56.37
68476;BME280;55464;48.266;14.188;2023-12-29T09:43:58;97933.25;;;11.05;56.93
68476;BME280;55464;48.266;14.188;2023-12-29T09:46:28;97925.00;;;11.05;57.19
68476;BME280;55464;48.266;14.188;2023-12-29T09:48:58;97907.88;;;11.00;57.48
68476;BME280;55464;48.266;14.188;2023-12-29T09:51:29;97930.16;;;11.19;57.67
68476;BME280;55464;48.266;14.188;2023-12-29T09:53:55;97936.13;;;11.21;57.29
68476;BME280;55464;48.266;14.188;2023-12-29T09:56:23;97938.22;;;11.24;56.92
68476;BME280;55464;48.266;14.188;2023-12-29T09:58:51;97944.31;;;11.30;56.76
68476;BME280;55464;48.266;14.188;2023-12-29T10:01:18;97937.16;;;11.29;56.70
68476;BME280;55464;48.266;14.188;2023-12-29T10:03:44;97940.03;;;11.32;57.04
68476;BME280;55464;48.266;14.188;2023-12-29T10:06:13;97937.97;;;11.42;56.52
68476;BME280;55464;48.266;14.188;2023-12-29T10:08:45;97938.19;;;11.49;56.08
68476;BME280;55464;48.266;14.188;2023-12-29T10:11:11;97933.13;;;11.51;56.20
68476;BME280;55464;48.266;14.188;2023-12-29T10:13:39;97924.63;;;11.56;56.34
68476;BME280;55464;48.266;14.188;2023-12-29T10:16:15;97920.00;;;11.60;56.40
68476;BME280;55464;48.266;14.188;2023-12-29T10:19:34;97918.84;;;11.61;56.59
68476;BME280;55464;48.266;14.188;2023-12-29T10:21:56;97920.72;;;11.57;56.62
68476;BME280;55464;48.266;14.188;2023-12-29T10:24:24;97925.84;;;11.59;56.40
68476;BME280;55464;48.266;14.188;2023-12-29T10:26:49;97911.41;;;11.25;58.18
68476;BME280;55464;48.266;14.188;2023-12-29T10:29:15;97918.09;;;11.36;57.63
68476;BME280;55464;48.266;14.188;2023-12-29T10:31:41;97910.97;;;11.35;56.99
68476;BME280;55464;48.266;14.188;2023-12-29T10:34:25;97927.28;;;11.52;56.84
68476;BME280;55464;48.266;14.188;2023-12-29T10:37:03;97926.47;;;11.52;56.30
68476;BME280;55464;48.266;14.188;2023-12-29T10:39:35;97924.63;;;11.56;56.79
68476;BME280;55464;48.266;14.188;2023-12-29T10:42:06;97917.69;;;11.62;56.50
68476;BME280;55464;48.266;14.188;2023-12-29T10:44:33;97911.94;;;11.67;56.28
68476;BME280;55464;48.266;14.188;2023-12-29T10:47:08;97899.16;;;11.75;56.08
68476;BME280;55464;48.266;14.188;2023-12-29T10:49:34;97896.94;;;11.81;56.76
68476;BME280;55464;48.266;14.188;2023-12-29T10:51:59;97899.00;;;11.84;56.87
68476;BME280;55464;48.266;14.188;2023-12-29T10:54:25;97892.41;;;11.88;56.79
68476;BME280;55464;48.266;14.188;2023-12-29T10:57:02;97889.66;;;11.88;56.10
68476;BME280;55464;48.266;14.188;2023-12-29T10:59:28;97889.00;;;11.91;55.07
68476;BME280;55464;48.266;14.188;2023-12-29T11:01:54;97882.69;;;11.91;55.57
68476;BME280;55464;48.266;14.188;2023-12-29T11:04:22;97887.25;;;11.99;55.12
68476;BME280;55464;48.266;14.188;2023-12-29T11:06:48;97873.91;;;12.01;54.42
68476;BME280;55464;48.266;14.188;2023-12-29T11:09:32;97868.91;;;12.07;54.61
68476;BME280;55464;48.266;14.188;2023-12-29T11:12:04;97856.25;;;12.06;55.13
68476;BME280;55464;48.266;14.188;2023-12-29T11:14:31;97865.56;;;12.14;56.06
68476;BME280;55464;48.266;14.188;2023-12-29T11:16:58;97855.53;;;12.09;56.76
68476;BME280;55464;48.266;14.188;2023-12-29T11:19:27;97856.09;;;12.15;56.69
68476;BME280;55464;48.266;14.188;2023-12-29T11:21:55;97866.78;;;12.16;56.04
68476;BME280;55464;48.266;14.188;2023-12-29T11:24:21;97855.94;;;11.95;56.03
68476;BME280;55464;48.266;14.188;2023-12-29T11:26:50;97857.06;;;12.06;56.17
68476;BME280;55464;48.266;14.188;2023-12-29T11:29:16;97866.50;;;12.05;55.93
68476;BME280;55464;48.266;14.188;2023-12-29T11:31:43;97862.41;;;11.87;56.24
68476;BME280;55464;48.266;14.188;2023-12-29T11:34:23;97854.25;;;11.90;56.55
68476;BME280;55464;48.266;14.188;2023-12-29T11:36:59;97853.19;;;11.95;56.57
68476;BME280;55464;48.266;14.188;2023-12-29T11:39:42;97852.94;;;12.00;56.49
68476;BME280;55464;48.266;14.188;2023-12-29T11:42:20;97854.56;;;12.01;56.57
68476;BME280;55464;48.266;14.188;2023-12-29T11:44:46;97842.81;;;12.04;56.67
68476;BME280;55464;48.266;14.188;2023-12-29T11:47:35;97836.91;;;12.06;56.85
68476;BME280;55464;48.266;14.188;2023-12-29T11:50:02;97844.16;;;12.10;56.60
68476;BME280;55464;48.266;14.188;2023-12-29T11:52:35;97837.47;;;12.12;56.79
68476;BME280;55464;48.266;14.188;2023-12-29T11:55:34;97836.84;;;12.18;56.33
68476;BME280;55464;48.266;14.188;2023-12-29T11:58:00;97835.34;;;12.21;56.33
68476;BME280;55464;48.266;14.188;2023-12-29T12:00:46;97819.91;;;12.20;56.10
68476;BME280;55464;48.266;14.188;2023-12-29T12:05:48;97833.31;;;12.34;56.42
68476;BME280;55464;48.266;14.188;2023-12-29T12:10:52;97822.00;;;12.39;55.49
68476;BME280;55464;48.266;14.188;2023-12-29T12:13:43;97822.88;;;12.43;55.69
68476;BME280;55464;48.266;14.188;2023-12-29T12:16:10;97812.81;;;12.35;50.58
68476;BME280;55464;48.266;14.188;2023-12-29T12:18:55;97811.72;;;12.39;51.93
68476;BME280;55464;48.266;14.188;2023-12-29T12:21:23;97801.75;;;12.35;51.98
68476;BME280;55464;48.266;14.188;2023-12-29T12:23:50;97798.72;;;12.40;50.87
68476;BME280;55464;48.266;14.188;2023-12-29T12:26:19;97804.44;;;12.47;50.68
68476;BME280;55464;48.266;14.188;2023-12-29T12:28:46;97802.91;;;12.49;51.58
68476;BME280;55464;48.266;14.188;2023-12-29T12:31:13;97803.00;;;12.53;53.34
68476;BME280;55464;48.266;14.188;2023-12-29T12:33:38;97809.00;;;12.55;54.28
68476;BME280;55464;48.266;14.188;2023-12-29T12:36:04;97793.47;;;12.51;55.15
68476;BME280;55464;48.266;14.188;2023-12-29T12:38:30;97795.88;;;12.52;55.75
68476;BME280;55464;48.266;14.188;2023-12-29T12:41:10;97808.00;;;12.63;55.70
68476;BME280;55464;48.266;14.188;2023-12-29T12:43:40;97799.69;;;12.63;55.80
68476;BME280;55464;48.266;14.188;2023-12-29T12:46:10;97804.97;;;12.68;55.69
68476;BME280;55464;48.266;14.188;2023-12-29T12:48:45;97782.75;;;12.65;55.73
68476;BME280;55464;48.266;14.188;2023-12-29T12:51:11;97790.34;;;12.68;55.47
68476;BME280;55464;48.266;14.188;2023-12-29T12:53:41;97784.53;;;12.73;55.64
68476;BME280;55464;48.266;14.188;2023-12-29T12:56:10;97768.22;;;12.68;55.53
68476;BME280;55464;48.266;14.188;2023-12-29T12:58:36;97770.19;;;12.67;55.70
68476;BME280;55464;48.266;14.188;2023-12-29T13:01:02;97769.44;;;12.71;55.47
68476;BME280;55464;48.266;14.188;2023-12-29T13:03:29;97776.69;;;12.75;55.14
68476;BME280;55464;48.266;14.188;2023-12-29T13:05:56;97784.63;;;12.77;55.29